createdAt,value
2023-03-29T00:01:00.764Z,92.36
2023-03-29T00:03:47.756Z,92.55
2023-03-29T00:06:35.257Z,92.97
2023-03-29T00:09:21.633Z,93.11
2023-03-29T00:12:08.534Z,91.96
2023-03-29T00:14:56.545Z,92.62
2023-03-29T00:17:43.201Z,94.78
2023-03-29T00:20:30.058Z,95.68
2023-03-29T00:23:18.361Z,96.19
2023-03-29T00:26:07.811Z,95.45
2023-03-29T00:28:54.763Z,95.97
2023-03-29T00:31:44.539Z,95.19
2023-03-29T00:34:31.914Z,95.02
2023-03-29T00:37:18.857Z,93.88
2023-03-29T00:40:09.689Z,95.39
2023-03-29T00:42:58.210Z,94.76
2023-03-29T00:45:44.881Z,94.20
2023-03-29T00:48:33.101Z,94.10
2023-03-29T00:51:22.009Z,94.54
2023-03-29T00:54:14.939Z,95.38
2023-03-29T00:57:04.140Z,94.83
2023-03-29T00:59:53.065Z,94.99
2023-03-29T01:02:43.504Z,94.73
2023-03-29T01:05:34.157Z,94.81
2023-03-29T01:08:25.823Z,95.73
2023-03-29T01:11:18.247Z,94.44
2023-03-29T01:14:08.454Z,94.02
2023-03-29T01:16:55.782Z,93.88
2023-03-29T01:19:47.530Z,94.59
2023-03-29T01:22:48.029Z,93.92
2023-03-29T01:25:46.194Z,92.62
2023-03-29T01:28:38.255Z,92.44
2023-03-29T01:31:28.793Z,92.29
2023-03-29T01:34:25.631Z,91.20
2023-03-29T01:37:19.244Z,90.56
2023-03-29T01:40:07.097Z,90.16
2023-03-29T01:43:00.123Z,89.15
2023-03-29T01:45:51.283Z,88.37
2023-03-29T01:48:47.657Z,88.29
2023-03-29T01:51:40.550Z,88.49
2023-03-29T01:54:32.439Z,87.91
2023-03-29T01:57:21.766Z,88.32
2023-03-29T02:00:15.408Z,86.79
2023-03-29T02:03:07.759Z,87.17
2023-03-29T02:05:56.452Z,88.06
2023-03-29T02:08:48.806Z,88.27
2023-03-29T02:11:37.208Z,88.82
2023-03-29T02:14:24.860Z,89.57
2023-03-29T02:17:18.378Z,90.65
2023-03-29T02:20:14.768Z,90.24
2023-03-29T02:23:05.717Z,91.37
2023-03-29T02:25:54.576Z,91.18
2023-03-29T02:28:43.007Z,91.39
2023-03-29T02:31:34.212Z,91.84
2023-03-29T02:34:26.832Z,92.07
2023-03-29T02:37:18.921Z,92.03
2023-03-29T02:40:12.654Z,91.74
2023-03-29T02:43:02.655Z,91.77
2023-03-29T02:45:51.628Z,92.23
2023-03-29T02:48:39.719Z,92.16
2023-03-29T02:51:32.132Z,92.14
2023-03-29T02:54:23.240Z,92.22
2023-03-29T02:57:11.365Z,92.37
2023-03-29T02:59:59.830Z,94.44
2023-03-29T03:02:46.692Z,93.93
2023-03-29T03:05:33.787Z,92.26
2023-03-29T03:08:20.745Z,94.26
2023-03-29T03:11:09.483Z,95.46
2023-03-29T03:13:56.474Z,95.36
2023-03-29T03:16:43.197Z,95.09
2023-03-29T03:19:30.279Z,95.20
2023-03-29T03:22:17.626Z,95.56
2023-03-29T03:25:04.789Z,95.54
2023-03-29T03:27:53.687Z,94.77
2023-03-29T03:30:44.198Z,94.17
2023-03-29T03:33:37.166Z,94.50
2023-03-29T03:36:47.330Z,93.77
2023-03-29T03:39:34.275Z,93.20
2023-03-29T03:42:23.260Z,93.28
2023-03-29T03:45:12.366Z,94.23
2023-03-29T03:48:21.062Z,94.44
2023-03-29T03:51:33.938Z,94.44
2023-03-29T03:54:20.744Z,95.41
2023-03-29T03:57:26.068Z,95.80
2023-03-29T04:00:20.461Z,95.86
2023-03-29T04:03:20.700Z,94.69
2023-03-29T04:06:07.846Z,94.98
2023-03-29T04:09:14.449Z,94.34
2023-03-29T04:12:04.916Z,94.62
2023-03-29T04:14:54.532Z,96.45
2023-03-29T04:17:44.124Z,94.54
2023-03-29T04:20:51.681Z,95.33
2023-03-29T04:23:43.090Z,95.08
2023-03-29T04:26:29.946Z,94.88
2023-03-29T04:29:29.744Z,94.44
2023-03-29T04:32:29.897Z,93.95
2023-03-29T04:35:22.605Z,92.58
2023-03-29T04:38:11.601Z,91.49
2023-03-29T04:40:59.361Z,91.78
2023-03-29T04:44:14.337Z,90.50
2023-03-29T04:47:00.933Z,90.07
2023-03-29T04:50:10.306Z,89.01
2023-03-29T04:53:03.636Z,87.47
2023-03-29T04:55:50.333Z,87.37
2023-03-29T04:58:47.673Z,87.67
2023-03-29T05:01:35.211Z,86.39
2023-03-29T05:04:21.773Z,86.76
2023-03-29T05:07:21.980Z,85.42
2023-03-29T05:10:11.661Z,84.13
2023-03-29T05:12:58.396Z,85.08
2023-03-29T05:15:46.072Z,85.29
2023-03-29T05:18:32.947Z,85.42
2023-03-29T05:21:20.693Z,83.79
2023-03-29T05:24:07.533Z,83.28
2023-03-29T05:27:11.846Z,83.88
2023-03-29T05:29:59.478Z,83.23
2023-03-29T05:32:51.734Z,83.31
2023-03-29T05:35:43.778Z,83.34
2023-03-29T05:38:32.900Z,83.05
2023-03-29T05:41:20.239Z,82.32
2023-03-29T05:44:27.159Z,81.78
2023-03-29T05:47:20.281Z,82.52
2023-03-29T05:50:09.861Z,81.98
2023-03-29T05:52:56.921Z,80.54
2023-03-29T05:55:43.832Z,80.65
2023-03-29T05:58:33.358Z,80.82
2023-03-29T06:01:22.676Z,80.76
2023-03-29T06:04:22.230Z,80.71
2023-03-29T06:07:19.548Z,80.57
2023-03-29T06:10:25.990Z,79.60
2023-03-29T06:13:22.442Z,79.06
2023-03-29T06:16:10.502Z,78.54
2023-03-29T06:18:58.368Z,78.86
2023-03-29T06:21:46.034Z,78.78
2023-03-29T06:24:36.673Z,78.08
2023-03-29T06:27:29.942Z,77.19
2023-03-29T06:30:19.039Z,76.35
2023-03-29T06:33:10.442Z,76.43
2023-03-29T06:36:12.041Z,76.74
2023-03-29T06:38:58.729Z,74.70
2023-03-29T06:42:19.992Z,74.72
2023-03-29T06:45:29.248Z,74.29
2023-03-29T06:48:17.434Z,74.24
2023-03-29T06:51:04.189Z,73.88
2023-03-29T06:53:52.581Z,74.49
2023-03-29T06:56:40.433Z,73.40
2023-03-29T06:59:32.711Z,71.87
2023-03-29T07:02:31.886Z,72.47
2023-03-29T07:05:28.362Z,71.08
2023-03-29T07:08:16.572Z,70.97
2023-03-29T07:11:23.554Z,71.90
2023-03-29T07:14:17.773Z,70.76
2023-03-29T07:17:05.911Z,71.35
2023-03-29T07:19:54.339Z,69.76
2023-03-29T07:23:13.490Z,69.62
2023-03-29T07:26:00.402Z,71.37
2023-03-29T07:28:48.776Z,69.73
2023-03-29T07:31:38.676Z,70.41
2023-03-29T07:34:45.243Z,70.32
2023-03-29T07:37:39.979Z,68.35
2023-03-29T07:40:28.276Z,68.47
2023-03-29T07:43:18.396Z,67.98
2023-03-29T07:46:10.188Z,67.31
2023-03-29T07:48:58.114Z,67.02
2023-03-29T07:51:45.092Z,66.99
2023-03-29T07:54:34.575Z,66.39
2023-03-29T07:57:44.669Z,67.20
2023-03-29T08:00:32.737Z,67.54
2023-03-29T08:03:43.510Z,64.68
2023-03-29T08:06:31.273Z,63.42
2023-03-29T08:09:17.985Z,63.60
2023-03-29T08:12:05.030Z,66.31
2023-03-29T08:14:55.686Z,63.67
2023-03-29T08:17:47.155Z,64.38
2023-03-29T08:20:35.325Z,63.44
2023-03-29T08:23:23.818Z,62.95
2023-03-29T08:26:22.279Z,62.79
2023-03-29T08:29:10.346Z,61.79
2023-03-29T08:31:58.859Z,61.90
2023-03-29T08:34:46.909Z,61.33
2023-03-29T08:37:57.573Z,60.59
2023-03-29T08:40:44.824Z,59.66
2023-03-29T08:43:53.707Z,58.10
2023-03-29T08:47:13.265Z,58.45
2023-03-29T08:50:02.804Z,57.26
2023-03-29T08:53:05.340Z,56.63
2023-03-29T08:56:16.309Z,54.01
2023-03-29T08:59:29.444Z,53.29
2023-03-29T09:02:20.897Z,53.32
2023-03-29T09:05:22.733Z,54.15
2023-03-29T09:08:27.786Z,54.08
2023-03-29T09:11:32.661Z,53.70
2023-03-29T09:14:35.254Z,53.10
2023-03-29T09:17:36.098Z,54.10
2023-03-29T09:20:44.219Z,53.16
2023-03-29T09:23:48.194Z,53.20
2023-03-29T09:26:52.873Z,52.51
2023-03-29T09:29:56.771Z,52.17
2023-03-29T09:33:01.995Z,53.37
2023-03-29T09:36:05.288Z,53.45
2023-03-29T09:38:55.733Z,54.12
2023-03-29T09:41:52.962Z,54.87
2023-03-29T09:44:43.860Z,53.41
2023-03-29T09:47:39.984Z,54.34
2023-03-29T09:50:35.567Z,54.50
2023-03-29T09:53:26.496Z,55.12
2023-03-29T09:56:24.405Z,55.25
2023-03-29T09:59:18.388Z,54.68
2023-03-29T10:02:09.727Z,53.13
2023-03-29T10:04:58.874Z,53.50
2023-03-29T10:07:49.769Z,53.74
2023-03-29T10:10:37.824Z,52.88
2023-03-29T10:13:30.674Z,53.35
2023-03-29T10:16:21.364Z,54.77
2023-03-29T10:19:19.297Z,54.78
2023-03-29T10:22:08.035Z,52.36
2023-03-29T10:24:58.104Z,53.22
2023-03-29T10:27:46.796Z,53.44
2023-03-29T10:30:38.017Z,54.75
2023-03-29T10:33:28.885Z,57.58
2023-03-29T10:36:15.634Z,57.13
2023-03-29T10:39:06.162Z,55.85
2023-03-29T10:41:53.751Z,56.26
2023-03-29T10:44:41.225Z,56.12
2023-03-29T10:47:34.548Z,55.74
2023-03-29T10:50:21.224Z,55.13
2023-03-29T10:53:18.558Z,54.24
2023-03-29T10:56:16.597Z,53.48
2023-03-29T10:59:18.571Z,53.49
2023-03-29T11:02:32.233Z,54.48
2023-03-29T11:05:29.107Z,53.32
2023-03-29T11:08:31.864Z,52.58
2023-03-29T11:11:47.024Z,52.74
2023-03-29T11:14:47.818Z,49.29
2023-03-29T11:17:50.952Z,50.24
2023-03-29T11:20:43.215Z,52.92
2023-03-29T11:23:41.575Z,51.09
2023-03-29T11:26:36.834Z,53.06
2023-03-29T11:29:29.576Z,52.95
2023-03-29T11:32:27.910Z,53.35
2023-03-29T11:35:28.377Z,53.51
2023-03-29T11:38:24.214Z,53.35
2023-03-29T11:41:17.789Z,54.39
2023-03-29T11:44:11.531Z,55.87
2023-03-29T11:47:03.799Z,54.51
2023-03-29T11:49:54.678Z,54.88
2023-03-29T11:52:45.218Z,55.18
2023-03-29T11:55:36.699Z,55.93
2023-03-29T11:58:31.223Z,55.02
2023-03-29T12:01:23.407Z,54.21
2023-03-29T12:04:17.789Z,55.34
2023-03-29T12:07:13.774Z,54.53
2023-03-29T12:10:08.119Z,56.82
2023-03-29T12:13:02.051Z,54.53
2023-03-29T12:15:53.877Z,53.35
2023-03-29T12:18:43.184Z,55.44
2023-03-29T12:21:31.783Z,53.61
2023-03-29T12:24:21.765Z,54.65
2023-03-29T12:27:22.203Z,54.32
2023-03-29T12:30:31.154Z,54.07
2023-03-29T12:33:52.694Z,52.39
2023-03-29T12:37:32.225Z,51.49
2023-03-29T12:40:36.574Z,52.44
2023-03-29T12:43:43.621Z,51.45
2023-03-29T12:46:41.749Z,53.16
2023-03-29T12:49:32.938Z,54.45
2023-03-29T12:52:27.638Z,51.76
2023-03-29T12:55:25.266Z,51.98
2023-03-29T12:58:27.853Z,51.86
2023-03-29T13:01:26.596Z,51.77
2023-03-29T13:04:18.830Z,52.49
2023-03-29T13:07:07.198Z,53.92
2023-03-29T13:09:55.533Z,54.59
2023-03-29T13:12:44.769Z,55.59
2023-03-29T13:15:34.873Z,54.03
2023-03-29T13:18:37.947Z,54.16
2023-03-29T13:21:36.441Z,54.28
2023-03-29T13:24:40.277Z,53.98
2023-03-29T13:27:37.333Z,52.58
2023-03-29T13:30:33.193Z,52.58
2023-03-29T13:33:46.621Z,54.09
2023-03-29T13:36:47.081Z,54.98
2023-03-29T13:39:37.535Z,52.47
2023-03-29T13:42:27.888Z,54.23
2023-03-29T13:45:17.345Z,52.93
2023-03-29T13:48:06.585Z,53.56
2023-03-29T13:50:56.646Z,54.93
2023-03-29T13:53:50.744Z,52.77
2023-03-29T13:56:43.369Z,53.51
2023-03-29T13:59:37.868Z,52.59
2023-03-29T14:02:33.761Z,54.37
2023-03-29T14:05:24.674Z,57.11
2023-03-29T14:08:17.374Z,56.07
2023-03-29T14:11:08.138Z,55.13
2023-03-29T14:13:55.925Z,54.06
2023-03-29T14:16:42.979Z,55.25
2023-03-29T14:19:32.652Z,54.08
2023-03-29T14:22:22.285Z,54.35
2023-03-29T14:25:16.048Z,53.34
2023-03-29T14:28:14.212Z,54.16
2023-03-29T14:31:01.167Z,54.83
2023-03-29T14:33:53.475Z,54.64
2023-03-29T14:36:40.658Z,52.34
2023-03-29T14:39:27.578Z,54.92
2023-03-29T14:42:20.890Z,52.18
2023-03-29T14:45:14.436Z,52.97
2023-03-29T14:48:01.742Z,52.90
2023-03-29T14:50:49.148Z,53.29
2023-03-29T14:53:38.136Z,52.71
2023-03-29T14:56:26.469Z,53.53
2023-03-29T14:59:25.974Z,54.19
2023-03-29T15:02:29.149Z,53.90
2023-03-29T15:05:25.762Z,53.02
2023-03-29T15:08:16.692Z,53.85
2023-03-29T15:11:04.384Z,53.61
2023-03-29T15:13:56.915Z,54.30
2023-03-29T15:16:47.517Z,53.51
2023-03-29T15:19:37.401Z,54.95
2023-03-29T15:22:24.157Z,54.42
2023-03-29T15:25:16.572Z,54.70
2023-03-29T15:28:03.132Z,55.89
2023-03-29T15:31:04.759Z,56.34
2023-03-29T15:34:05.732Z,53.61
2023-03-29T15:36:57.400Z,55.12
2023-03-29T15:39:45.388Z,54.64
2023-03-29T15:42:32.119Z,55.38
2023-03-29T15:45:20.083Z,55.00
2023-03-29T15:48:15.630Z,53.66
2023-03-29T15:51:05.747Z,56.06
2023-03-29T15:53:54.839Z,56.90
2023-03-29T15:56:49.045Z,56.86
2023-03-29T15:59:36.548Z,56.39
2023-03-29T16:02:25.596Z,56.28
2023-03-29T16:05:13.449Z,56.91
2023-03-29T16:08:00.039Z,57.11
2023-03-29T16:10:49.219Z,58.73
2023-03-29T16:13:36.557Z,58.76
2023-03-29T16:16:26.317Z,59.95
2023-03-29T16:19:13.419Z,59.56
2023-03-29T16:22:01.782Z,60.63
2023-03-29T16:24:48.338Z,60.78
2023-03-29T16:27:36.783Z,62.25
2023-03-29T16:30:24.956Z,62.21
2023-03-29T16:33:12.439Z,62.27
2023-03-29T16:35:58.956Z,63.10
2023-03-29T16:38:46.093Z,63.01
2023-03-29T16:41:33.328Z,63.36
2023-03-29T16:44:24.745Z,63.84
2023-03-29T16:47:12.220Z,64.17
2023-03-29T16:49:58.814Z,64.75
2023-03-29T16:52:47.982Z,64.89
2023-03-29T16:55:34.795Z,65.95
2023-03-29T16:58:21.363Z,65.58
2023-03-29T17:01:10.999Z,66.73
2023-03-29T17:03:57.633Z,68.21
2023-03-29T17:06:44.386Z,67.44
2023-03-29T17:09:31.251Z,68.21
2023-03-29T17:12:19.249Z,68.24
2023-03-29T17:15:07.686Z,69.69
2023-03-29T17:17:55.825Z,68.86
2023-03-29T17:20:42.562Z,69.49
2023-03-29T17:23:29.401Z,70.77
2023-03-29T17:26:16.162Z,70.88
2023-03-29T17:29:03.139Z,71.82
2023-03-29T17:31:50.318Z,71.40
2023-03-29T17:34:38.980Z,72.13
2023-03-29T17:37:26.314Z,71.68
2023-03-29T17:40:14.995Z,71.94
2023-03-29T17:43:02.574Z,72.21
2023-03-29T17:45:52.252Z,73.28
2023-03-29T17:48:39.311Z,73.55
2023-03-29T17:51:28.197Z,76.50
2023-03-29T17:54:14.881Z,76.64
2023-03-29T17:57:01.555Z,76.08
2023-03-29T17:59:48.446Z,75.21
2023-03-29T18:02:42.980Z,75.44
2023-03-29T18:05:30.021Z,76.00
2023-03-29T18:08:18.181Z,76.33
2023-03-29T18:11:08.795Z,75.78
2023-03-29T18:13:56.292Z,77.02
2023-03-29T18:16:42.786Z,77.27
2023-03-29T18:19:29.814Z,77.78
2023-03-29T18:22:17.815Z,78.31
2023-03-29T18:25:07.246Z,77.58
2023-03-29T18:27:53.985Z,76.50
2023-03-29T18:30:40.653Z,76.80
2023-03-29T18:33:28.005Z,75.64
2023-03-29T18:36:15.347Z,74.73
2023-03-29T18:39:05.917Z,74.91
2023-03-29T18:41:54.414Z,74.72
2023-03-29T18:44:42.474Z,74.46
2023-03-29T18:47:29.241Z,74.19
2023-03-29T18:50:15.917Z,73.72
2023-03-29T18:53:02.683Z,73.62
2023-03-29T18:55:49.559Z,73.32
2023-03-29T18:58:37.940Z,73.47
2023-03-29T19:01:24.426Z,73.81
2023-03-29T19:04:11.178Z,74.20
2023-03-29T19:06:59.799Z,74.51
2023-03-29T19:09:46.550Z,73.88
2023-03-29T19:12:33.911Z,73.64
2023-03-29T19:15:22.221Z,73.85
2023-03-29T19:18:09.464Z,73.73
2023-03-29T19:20:56.308Z,73.89
2023-03-29T19:23:43.008Z,74.46
2023-03-29T19:26:29.676Z,74.84
2023-03-29T19:29:16.367Z,75.64
2023-03-29T19:32:06.808Z,74.92
2023-03-29T19:34:53.300Z,75.06
2023-03-29T19:37:40.156Z,75.49
2023-03-29T19:40:27.525Z,75.38
2023-03-29T19:43:16.674Z,76.01
2023-03-29T19:46:08.004Z,75.97
2023-03-29T19:48:56.722Z,75.83
2023-03-29T19:51:43.781Z,76.69
2023-03-29T19:54:30.819Z,77.48
2023-03-29T19:57:17.689Z,77.11
2023-03-29T20:00:08.067Z,78.01
2023-03-29T20:02:59.900Z,78.10
2023-03-29T20:05:48.151Z,78.87
2023-03-29T20:08:38.828Z,78.66
2023-03-29T20:11:26.073Z,79.21
2023-03-29T20:14:12.862Z,80.78
2023-03-29T20:16:59.676Z,79.93
2023-03-29T20:19:46.610Z,80.29
2023-03-29T20:22:34.496Z,81.38
2023-03-29T20:25:22.899Z,81.84
2023-03-29T20:28:10.023Z,80.76
2023-03-29T20:30:57.005Z,80.48
2023-03-29T20:33:44.561Z,80.16
2023-03-29T20:36:34.416Z,81.13
2023-03-29T20:39:25.583Z,80.72
2023-03-29T20:42:14.152Z,82.23
2023-03-29T20:45:01.432Z,81.66
2023-03-29T20:47:50.621Z,82.29
2023-03-29T20:50:39.124Z,81.82
2023-03-29T20:53:34.257Z,80.98
2023-03-29T20:56:26.684Z,81.81
2023-03-29T20:59:13.377Z,82.17
2023-03-29T21:02:00.738Z,81.59
2023-03-29T21:04:50.768Z,82.52
2023-03-29T21:07:37.591Z,82.70
2023-03-29T21:10:25.686Z,82.07
2023-03-29T21:13:13.610Z,82.12
2023-03-29T21:16:01.010Z,81.40
2023-03-29T21:18:49.997Z,82.17
2023-03-29T21:21:37.109Z,83.05
2023-03-29T21:24:23.676Z,82.79
2023-03-29T21:27:10.430Z,82.26
2023-03-29T21:29:58.499Z,83.08
2023-03-29T21:32:45.417Z,83.45
2023-03-29T21:35:33.419Z,82.92
2023-03-29T21:38:20.100Z,81.81
2023-03-29T21:41:10.621Z,82.48
2023-03-29T21:43:57.319Z,83.21
2023-03-29T21:46:45.890Z,82.02
2023-03-29T21:49:32.580Z,83.56
2023-03-29T21:52:19.248Z,83.45
2023-03-29T21:55:06.385Z,83.93
2023-03-29T21:57:53.979Z,84.10
2023-03-29T22:00:40.422Z,84.63
2023-03-29T22:03:28.477Z,84.04
2023-03-29T22:06:16.444Z,85.29
2023-03-29T22:09:03.178Z,84.80
2023-03-29T22:11:50.790Z,84.99
2023-03-29T22:14:37.855Z,84.55
2023-03-29T22:17:26.799Z,83.68
2023-03-29T22:20:15.721Z,84.88
2023-03-29T22:23:06.089Z,84.42
2023-03-29T22:25:52.718Z,85.44
2023-03-29T22:28:48.253Z,84.58
2023-03-29T22:31:38.770Z,86.04
2023-03-29T22:34:26.663Z,85.07
2023-03-29T22:37:14.878Z,85.21
2023-03-29T22:40:02.826Z,86.33
2023-03-29T22:42:51.144Z,86.36
2023-03-29T22:45:37.964Z,86.45
2023-03-29T22:48:24.873Z,86.69
2023-03-29T22:51:11.946Z,85.60
2023-03-29T22:53:59.920Z,86.47
2023-03-29T22:56:46.820Z,86.72
2023-03-29T22:59:47.697Z,86.65
2023-03-29T23:02:38.326Z,86.29
2023-03-29T23:05:25.635Z,86.96
2023-03-29T23:08:12.514Z,87.09
2023-03-29T23:11:01.499Z,87.79
2023-03-29T23:13:49.046Z,87.80
2023-03-29T23:16:35.483Z,89.54
2023-03-29T23:19:22.430Z,89.23
2023-03-29T23:22:08.956Z,89.55
2023-03-29T23:24:55.731Z,88.57
2023-03-29T23:27:44.082Z,88.48
2023-03-29T23:30:31.010Z,89.74
2023-03-29T23:33:17.636Z,88.83
2023-03-29T23:36:06.812Z,89.89
2023-03-29T23:38:53.616Z,89.38
2023-03-29T23:41:40.338Z,89.89
2023-03-29T23:44:28.544Z,89.43
2023-03-29T23:47:15.754Z,90.44
2023-03-29T23:50:03.195Z,89.68
2023-03-29T23:52:51.720Z,92.49
2023-03-29T23:55:38.518Z,91.79
2023-03-29T23:58:25.502Z,92.19
